createdAt,value
2019-03-17T00:00:17.837Z,5.17
2019-03-17T00:02:46.522Z,4.67
2019-03-17T00:05:15.148Z,4.70
2019-03-17T00:07:43.650Z,3.92
2019-03-17T00:10:12.671Z,3.90
2019-03-17T00:12:41.306Z,4.50
2019-03-17T00:15:10.160Z,4.67
2019-03-17T00:17:41.733Z,4.78
2019-03-17T00:20:09.241Z,4.35
2019-03-17T00:22:37.865Z,5.28
2019-03-17T00:25:09.560Z,5.80
2019-03-17T00:27:37.116Z,5.47
2019-03-17T00:30:08.843Z,4.28
2019-03-17T00:32:37.703Z,3.12
2019-03-17T00:35:07.244Z,3.90
2019-03-17T00:37:35.728Z,3.52
2019-03-17T00:40:09.492Z,3.92
2019-03-17T00:42:38.143Z,3.58
2019-03-17T00:45:11.758Z,3.95
2019-03-17T00:47:40.681Z,4.35
2019-03-17T00:50:12.838Z,3.87
2019-03-17T00:52:41.399Z,3.37
2019-03-17T00:55:10.174Z,3.45
2019-03-17T00:57:38.811Z,3.80
2019-03-17T01:00:10.340Z,3.95
2019-03-17T01:02:38.935Z,3.30
2019-03-17T01:05:07.681Z,3.05
2019-03-17T01:07:36.299Z,3.45
2019-03-17T01:10:06.815Z,3.10
2019-03-17T01:12:35.377Z,3.62
2019-03-17T01:15:05.594Z,3.25
2019-03-17T01:17:34.232Z,2.67
2019-03-17T01:20:02.800Z,2.92
2019-03-17T01:22:31.579Z,3.30
2019-03-17T01:25:00.360Z,2.62
2019-03-17T01:27:28.948Z,2.45
2019-03-17T01:29:58.460Z,2.62
2019-03-17T01:32:27.014Z,3.10
2019-03-17T01:35:08.253Z,2.58
2019-03-17T01:37:27.036Z,3.02
2019-03-17T01:39:55.532Z,3.30
2019-03-17T01:42:24.107Z,2.55
2019-03-17T01:44:52.771Z,1.98
2019-03-17T01:47:21.339Z,1.90
2019-03-17T01:49:49.814Z,2.50
2019-03-17T01:52:18.667Z,3.12
2019-03-17T01:54:47.293Z,2.77
2019-03-17T01:57:15.860Z,3.00
2019-03-17T01:59:44.621Z,3.50
2019-03-17T02:02:13.315Z,3.10
2019-03-17T02:04:41.798Z,3.92
2019-03-17T02:07:10.388Z,3.90
2019-03-17T02:09:39.014Z,4.15
2019-03-17T02:12:07.607Z,4.55
2019-03-17T02:14:36.288Z,4.33
2019-03-17T02:17:04.915Z,4.08
2019-03-17T02:19:33.547Z,4.08
2019-03-17T02:22:02.145Z,4.20
2019-03-17T02:24:31.007Z,4.30
2019-03-17T02:26:59.568Z,4.28
2019-03-17T02:29:28.442Z,4.03
2019-03-17T02:31:57.001Z,2.60
2019-03-17T02:34:25.512Z,1.90
2019-03-17T02:36:54.088Z,2.20
2019-03-17T02:39:26.225Z,2.27
2019-03-17T02:41:53.847Z,3.20
2019-03-17T02:44:22.530Z,2.52
2019-03-17T02:46:51.088Z,2.98
2019-03-17T02:49:19.572Z,2.90
2019-03-17T02:51:48.103Z,3.05
2019-03-17T02:54:16.735Z,3.20
2019-03-17T02:56:45.390Z,3.42
2019-03-17T02:59:13.922Z,3.25
2019-03-17T03:01:42.661Z,4.45
2019-03-17T03:04:11.304Z,3.62
2019-03-17T03:06:39.903Z,3.98
2019-03-17T03:09:08.529Z,4.47
2019-03-17T03:11:37.085Z,3.90
2019-03-17T03:14:05.760Z,3.20
2019-03-17T03:16:34.328Z,3.08
2019-03-17T03:19:02.883Z,3.58
2019-03-17T03:21:31.630Z,2.98
2019-03-17T03:24:00.170Z,3.40
2019-03-17T03:26:28.679Z,3.20
2019-03-17T03:28:57.614Z,2.85
2019-03-17T03:31:26.270Z,2.33
2019-03-17T03:33:54.738Z,2.42
2019-03-17T03:36:23.513Z,3.15
2019-03-17T03:38:52.262Z,3.90
2019-03-17T03:41:20.821Z,3.72
2019-03-17T03:43:49.344Z,4.08
2019-03-17T03:46:17.905Z,3.60
2019-03-17T03:48:46.554Z,3.58
2019-03-17T03:51:15.294Z,2.80
2019-03-17T03:53:43.791Z,3.35
2019-03-17T03:56:12.376Z,2.40
2019-03-17T03:58:41.053Z,2.00
2019-03-17T04:01:09.599Z,1.70
2019-03-17T04:03:38.244Z,1.70
2019-03-17T04:06:07.068Z,1.22
2019-03-17T04:08:35.555Z,3.42
2019-03-17T04:11:04.124Z,3.15
2019-03-17T04:13:32.786Z,3.00
2019-03-17T04:16:01.341Z,2.55
2019-03-17T04:18:29.820Z,2.60
2019-03-17T04:20:58.572Z,2.12
2019-03-17T04:23:27.195Z,2.55
2019-03-17T04:25:55.829Z,1.52
2019-03-17T04:28:24.424Z,1.90
2019-03-17T04:30:52.988Z,2.00
2019-03-17T04:33:21.645Z,2.08
2019-03-17T04:35:50.505Z,1.35
2019-03-17T04:38:19.065Z,1.60
2019-03-17T04:40:47.722Z,2.15
2019-03-17T04:43:16.246Z,1.47
2019-03-17T04:45:44.910Z,1.57
2019-03-17T04:48:13.537Z,1.32
2019-03-17T04:50:42.148Z,2.37
2019-03-17T04:53:10.708Z,3.47
2019-03-17T04:55:39.274Z,4.42
2019-03-17T04:58:07.932Z,5.55
2019-03-17T05:00:36.494Z,5.58
2019-03-17T05:03:04.992Z,5.12
2019-03-17T05:05:33.585Z,5.67
2019-03-17T05:08:02.216Z,6.55
2019-03-17T05:10:30.852Z,5.53
2019-03-17T05:12:59.385Z,5.83
2019-03-17T05:15:28.005Z,5.75
2019-03-17T05:17:56.585Z,6.20
2019-03-17T05:20:25.244Z,6.20
2019-03-17T05:22:53.878Z,5.12
2019-03-17T05:25:22.504Z,5.87
2019-03-17T05:27:51.109Z,5.87
2019-03-17T05:30:19.797Z,6.95
2019-03-17T05:32:48.434Z,5.83
2019-03-17T05:35:17.047Z,6.90
2019-03-17T05:37:45.583Z,7.37
2019-03-17T05:40:14.221Z,6.08
2019-03-17T05:42:42.884Z,6.25
2019-03-17T05:45:11.530Z,6.97
2019-03-17T05:47:40.095Z,6.22
2019-03-17T05:50:09.980Z,6.75
2019-03-17T05:52:38.605Z,5.83
2019-03-17T05:55:09.048Z,7.17
2019-03-17T05:57:37.652Z,7.42
2019-03-17T06:00:09.198Z,6.65
2019-03-17T06:02:37.699Z,7.70
2019-03-17T06:05:07.663Z,6.20
2019-03-17T06:07:36.300Z,6.03
2019-03-17T06:10:06.727Z,5.90
2019-03-17T06:12:35.363Z,6.47
2019-03-17T06:15:04.800Z,4.72
2019-03-17T06:17:33.427Z,4.78
2019-03-17T06:20:02.256Z,5.15
2019-03-17T06:22:30.757Z,5.15
2019-03-17T06:24:59.339Z,4.67
2019-03-17T06:27:28.043Z,4.53
2019-03-17T06:29:56.611Z,5.15
2019-03-17T06:32:25.109Z,4.87
2019-03-17T06:34:53.723Z,4.75
2019-03-17T06:37:31.047Z,4.80
2019-03-17T06:39:52.627Z,4.28
2019-03-17T06:42:21.120Z,3.85
2019-03-17T06:44:49.683Z,4.25
2019-03-17T06:47:18.603Z,4.80
2019-03-17T06:49:47.168Z,5.28
2019-03-17T06:52:15.684Z,4.87
2019-03-17T06:54:44.544Z,5.30
2019-03-17T06:57:13.189Z,6.35
2019-03-17T06:59:41.770Z,4.75
2019-03-17T07:02:10.295Z,6.25
2019-03-17T07:04:38.863Z,4.28
2019-03-17T07:07:07.566Z,5.40
2019-03-17T07:09:36.182Z,5.28
2019-03-17T07:12:04.808Z,5.30
2019-03-17T07:14:33.313Z,6.08
2019-03-17T07:17:01.981Z,5.17
2019-03-17T07:19:30.563Z,5.22
2019-03-17T07:21:59.202Z,4.90
2019-03-17T07:24:27.961Z,5.78
2019-03-17T07:26:56.442Z,5.55
2019-03-17T07:29:25.019Z,5.83
2019-03-17T07:31:53.710Z,6.10
2019-03-17T07:34:22.270Z,4.92
2019-03-17T07:36:50.768Z,5.42
2019-03-17T07:39:19.381Z,6.03
2019-03-17T07:41:48.009Z,4.30
2019-03-17T07:44:16.578Z,4.60
2019-03-17T07:46:45.257Z,4.53
2019-03-17T07:49:13.817Z,4.00
2019-03-17T07:51:42.448Z,5.47
2019-03-17T07:54:11.119Z,6.08
2019-03-17T07:56:39.680Z,4.47
2019-03-17T07:59:08.244Z,5.17
2019-03-17T08:01:36.774Z,5.70
2019-03-17T08:04:05.421Z,7.25
2019-03-17T08:06:34.057Z,6.15
2019-03-17T08:09:02.790Z,5.58
2019-03-17T08:11:31.312Z,5.50
2019-03-17T08:13:59.872Z,5.90
2019-03-17T08:16:28.544Z,6.22
2019-03-17T08:18:57.106Z,6.22
2019-03-17T08:21:25.616Z,6.35
2019-03-17T08:23:54.218Z,5.80
2019-03-17T08:26:22.859Z,5.53
2019-03-17T08:28:51.417Z,5.50
2019-03-17T08:31:19.960Z,4.70
2019-03-17T08:33:48.602Z,3.98
2019-03-17T08:36:17.166Z,4.70
2019-03-17T08:38:46.120Z,4.60
2019-03-17T08:41:14.766Z,4.80
2019-03-17T08:43:53.750Z,5.10
2019-03-17T08:46:13.729Z,5.05
2019-03-17T08:48:42.303Z,4.60
2019-03-17T08:51:10.952Z,4.72
2019-03-17T08:53:39.537Z,3.62
2019-03-17T08:56:08.086Z,3.72
2019-03-17T08:58:36.647Z,4.50
2019-03-17T09:01:05.321Z,5.25
2019-03-17T09:03:33.881Z,3.75
2019-03-17T09:06:02.444Z,3.55
2019-03-17T09:08:35.236Z,4.10
2019-03-17T09:11:01.392Z,2.90
2019-03-17T09:13:29.957Z,3.25
2019-03-17T09:15:58.587Z,3.50
2019-03-17T09:18:27.528Z,3.55
2019-03-17T09:20:56.017Z,2.62
2019-03-17T09:23:24.680Z,2.95
2019-03-17T09:25:53.312Z,3.02
2019-03-17T09:28:21.880Z,3.70
2019-03-17T09:30:50.490Z,3.72
2019-03-17T09:33:19.063Z,2.40
2019-03-17T09:35:47.746Z,1.77
2019-03-17T09:38:16.328Z,1.37
2019-03-17T09:40:44.834Z,0.78
2019-03-17T09:43:13.401Z,0.57
2019-03-17T09:45:42.062Z,0.50
2019-03-17T09:48:10.693Z,0.72
2019-03-17T09:50:39.258Z,0.50
2019-03-17T09:53:07.995Z,0.40
2019-03-17T09:55:36.553Z,0.72
2019-03-17T09:58:05.193Z,0.42
2019-03-17T10:00:33.857Z,0.40
2019-03-17T10:03:02.484Z,0.50
2019-03-17T10:05:31.045Z,0.50
2019-03-17T10:07:59.807Z,0.50
2019-03-17T10:10:28.438Z,0.40
2019-03-17T10:12:56.996Z,0.50
2019-03-17T10:15:25.609Z,0.60
2019-03-17T10:17:54.173Z,0.75
2019-03-17T10:20:22.797Z,0.40
2019-03-17T10:22:51.468Z,0.70
2019-03-17T10:25:19.959Z,0.50
2019-03-17T10:27:48.700Z,0.40
2019-03-17T10:30:21.018Z,0.40
2019-03-17T10:32:49.626Z,0.50
2019-03-17T10:35:18.258Z,0.47
2019-03-17T10:37:46.925Z,0.70
2019-03-17T10:40:19.565Z,0.50
2019-03-17T10:42:48.194Z,0.40
2019-03-17T10:45:16.900Z,1.00
2019-03-17T10:47:45.522Z,0.40
2019-03-17T10:50:24.394Z,0.40
2019-03-17T10:52:53.069Z,1.00
2019-03-17T10:55:21.714Z,0.45
2019-03-17T10:57:50.302Z,0.40
2019-03-17T11:00:20.040Z,0.40
2019-03-17T11:02:48.660Z,0.50
2019-03-17T11:05:17.562Z,0.40
2019-03-17T11:07:46.209Z,0.40
2019-03-17T11:10:15.245Z,0.57
2019-03-17T11:12:44.028Z,0.80
2019-03-17T11:15:17.755Z,0.50
2019-03-17T11:17:46.385Z,0.50
2019-03-17T11:20:15.340Z,0.50
2019-03-17T11:22:44.039Z,0.50
2019-03-17T11:25:20.143Z,0.33
2019-03-17T11:27:48.742Z,0.60
2019-03-17T11:30:19.352Z,0.53
2019-03-17T11:32:47.987Z,0.65
2019-03-17T11:35:16.747Z,0.53
2019-03-17T11:37:45.313Z,0.50
2019-03-17T11:40:15.903Z,0.40
2019-03-17T11:42:44.573Z,0.72
2019-03-17T11:45:14.201Z,0.50
2019-03-17T11:47:43.139Z,0.47
2019-03-17T11:50:19.191Z,0.80
2019-03-17T11:52:48.237Z,0.40
2019-03-17T11:55:16.870Z,0.50
2019-03-17T11:57:45.684Z,0.40
2019-03-17T12:00:19.892Z,0.45
2019-03-17T12:02:48.757Z,0.50
2019-03-17T12:05:17.390Z,0.30
2019-03-17T12:07:45.950Z,0.40
2019-03-17T12:10:16.752Z,0.45
2019-03-17T12:12:45.335Z,0.40
2019-03-17T12:15:22.281Z,0.57
2019-03-17T12:17:51.041Z,0.50
2019-03-17T12:20:19.764Z,0.40
2019-03-17T12:22:48.338Z,0.42
2019-03-17T12:25:18.216Z,0.40
2019-03-17T12:27:46.952Z,0.60
2019-03-17T12:30:18.488Z,0.40
2019-03-17T12:32:47.357Z,0.40
2019-03-17T12:35:16.096Z,1.27
2019-03-17T12:37:44.729Z,0.70
2019-03-17T12:40:13.329Z,0.40
2019-03-17T12:42:41.887Z,0.40
2019-03-17T12:45:11.524Z,0.40
2019-03-17T12:47:40.132Z,0.30
2019-03-17T12:50:13.915Z,0.50
2019-03-17T12:52:42.488Z,0.68
2019-03-17T12:55:11.253Z,0.50
2019-03-17T12:57:39.883Z,0.40
2019-03-17T13:00:19.816Z,0.68
2019-03-17T13:02:48.380Z,0.50
2019-03-17T13:05:17.018Z,0.37
2019-03-17T13:07:45.626Z,0.40
2019-03-17T13:10:16.756Z,0.40
2019-03-17T13:12:45.446Z,0.30
2019-03-17T13:15:14.130Z,0.40
2019-03-17T13:17:42.695Z,0.40
2019-03-17T13:20:13.734Z,0.40
2019-03-17T13:22:42.332Z,0.40
2019-03-17T13:25:12.163Z,0.80
2019-03-17T13:27:40.893Z,0.40
2019-03-17T13:30:17.618Z,0.40
2019-03-17T13:32:46.268Z,0.25
2019-03-17T13:35:15.187Z,0.40
2019-03-17T13:37:43.803Z,0.60
2019-03-17T13:40:27.686Z,0.40
2019-03-17T13:42:45.295Z,0.20
2019-03-17T13:45:14.271Z,0.40
2019-03-17T13:47:42.902Z,0.40
2019-03-17T13:50:21.825Z,0.42
2019-03-17T13:52:50.473Z,0.50
2019-03-17T13:55:19.089Z,0.40
2019-03-17T13:57:50.668Z,0.37
2019-03-17T14:00:19.409Z,0.40
2019-03-17T14:02:48.035Z,0.70
2019-03-17T14:05:16.707Z,0.40
2019-03-17T14:07:45.339Z,0.75
2019-03-17T14:10:18.044Z,0.40
2019-03-17T14:12:46.959Z,0.50
2019-03-17T14:15:15.997Z,0.50
2019-03-17T14:17:44.634Z,0.40
2019-03-17T14:20:21.185Z,0.40
2019-03-17T14:22:49.991Z,0.40
2019-03-17T14:25:24.444Z,0.35
2019-03-17T14:27:53.074Z,0.55
2019-03-17T14:30:21.705Z,0.50
2019-03-17T14:32:50.462Z,1.00
2019-03-17T14:35:21.474Z,12.20
2019-03-17T14:37:49.470Z,2.15
2019-03-17T14:40:18.509Z,0.40
2019-03-17T14:42:49.477Z,0.60
2019-03-17T14:45:18.512Z,1.17
2019-03-17T14:47:47.176Z,0.90
2019-03-17T14:50:24.524Z,0.90
2019-03-17T14:52:53.347Z,0.47
2019-03-17T14:55:22.002Z,0.30
2019-03-17T14:57:50.631Z,0.40
2019-03-17T15:00:20.418Z,0.50
2019-03-17T15:02:49.077Z,0.70
2019-03-17T15:05:17.708Z,0.40
2019-03-17T15:07:47.161Z,0.40
2019-03-17T15:10:20.394Z,0.40
2019-03-17T15:12:49.238Z,0.35
2019-03-17T15:15:19.110Z,0.50
2019-03-17T15:17:48.172Z,0.50
2019-03-17T15:20:19.108Z,0.98
2019-03-17T15:22:47.771Z,0.50
2019-03-17T15:25:16.496Z,0.60
2019-03-17T15:27:45.167Z,0.55
2019-03-17T15:30:27.783Z,0.60
2019-03-17T15:32:56.409Z,0.90
2019-03-17T15:35:25.146Z,0.60
2019-03-17T15:37:53.817Z,0.60
2019-03-17T15:40:22.658Z,0.60
2019-03-17T15:42:51.392Z,0.75
2019-03-17T15:45:21.285Z,0.80
2019-03-17T15:47:49.904Z,0.95
2019-03-17T15:50:25.887Z,2.15
2019-03-17T15:52:54.517Z,2.37
2019-03-17T15:55:23.159Z,1.20
2019-03-17T15:57:51.822Z,2.10
2019-03-17T16:00:27.294Z,1.65
2019-03-17T16:02:55.975Z,1.75
2019-03-17T16:05:24.753Z,1.27
2019-03-17T16:07:53.383Z,2.50
2019-03-17T16:10:23.957Z,1.77
2019-03-17T16:12:52.629Z,1.47
2019-03-17T16:15:21.251Z,2.00
2019-03-17T16:17:49.879Z,2.12
2019-03-17T16:20:20.740Z,2.37
2019-03-17T16:22:49.456Z,2.50
2019-03-17T16:25:38.217Z,2.47
2019-03-17T16:28:06.880Z,2.50
2019-03-17T16:30:35.768Z,2.37
2019-03-17T16:33:04.741Z,2.55
2019-03-17T16:35:33.381Z,3.30
2019-03-17T16:38:02.027Z,3.10
2019-03-17T16:40:34.711Z,3.27
2019-03-17T16:43:03.388Z,3.50
2019-03-17T16:45:32.022Z,4.80
2019-03-17T16:48:00.686Z,4.00
2019-03-17T16:50:29.328Z,5.40
2019-03-17T16:52:58.197Z,6.42
2019-03-17T16:55:26.864Z,8.58
2019-03-17T16:57:55.487Z,8.58
2019-03-17T17:00:25.028Z,9.73
2019-03-17T17:02:54.038Z,8.23
2019-03-17T17:05:24.728Z,10.20
2019-03-17T17:07:53.358Z,11.95
2019-03-17T17:10:24.200Z,7.53
2019-03-17T17:12:52.842Z,7.47
2019-03-17T17:15:27.260Z,7.37
2019-03-17T17:17:56.094Z,7.40
2019-03-17T17:20:27.492Z,6.20
2019-03-17T17:22:56.284Z,6.15
2019-03-17T17:25:24.927Z,7.08
2019-03-17T17:27:53.574Z,7.70
2019-03-17T17:30:22.583Z,8.10
2019-03-17T17:32:51.329Z,9.30
2019-03-17T17:35:19.980Z,11.57
2019-03-17T17:37:48.659Z,12.78
2019-03-17T17:40:24.427Z,14.25
2019-03-17T17:42:53.042Z,12.50
2019-03-17T17:45:25.407Z,13.58
2019-03-17T17:47:53.984Z,10.95
2019-03-17T17:50:27.585Z,7.97
2019-03-17T17:52:56.217Z,12.20
2019-03-17T17:55:24.872Z,15.18
2019-03-17T17:57:53.491Z,12.60
2019-03-17T18:00:24.205Z,9.83
2019-03-17T18:02:52.781Z,10.15
2019-03-17T18:05:21.372Z,9.23
2019-03-17T18:07:49.979Z,9.35
2019-03-17T18:10:19.528Z,10.30
2019-03-17T18:12:48.164Z,9.83
2019-03-17T18:15:21.819Z,9.95
2019-03-17T18:17:50.543Z,9.65
2019-03-17T18:20:19.197Z,11.05
2019-03-17T18:22:47.880Z,10.13
2019-03-17T18:25:19.229Z,10.00
2019-03-17T18:27:47.978Z,10.43
2019-03-17T18:30:18.632Z,10.25
2019-03-17T18:32:47.279Z,11.38
2019-03-17T18:35:15.930Z,10.63
2019-03-17T18:37:44.632Z,11.95
2019-03-17T18:40:22.752Z,12.00
2019-03-17T18:42:51.427Z,11.60
2019-03-17T18:45:24.263Z,12.07
2019-03-17T18:47:52.845Z,12.45
2019-03-17T18:50:21.684Z,12.70
2019-03-17T18:52:50.333Z,11.63
2019-03-17T18:55:19.171Z,12.93
2019-03-17T18:57:47.788Z,12.53
2019-03-17T19:00:26.435Z,12.78
2019-03-17T19:02:55.045Z,13.13
2019-03-17T19:05:23.699Z,12.20
2019-03-17T19:07:52.265Z,10.93
2019-03-17T19:10:21.446Z,10.60
2019-03-17T19:12:50.213Z,10.48
2019-03-17T19:15:22.116Z,9.08
2019-03-17T19:17:50.898Z,9.43
2019-03-17T19:20:20.537Z,9.30
2019-03-17T19:22:49.164Z,9.73
2019-03-17T19:25:19.049Z,9.00
2019-03-17T19:27:47.713Z,8.70
2019-03-17T19:30:18.220Z,7.85
2019-03-17T19:32:47.255Z,6.92
2019-03-17T19:35:15.934Z,7.22
2019-03-17T19:37:44.719Z,9.65
2019-03-17T19:40:15.463Z,8.70
2019-03-17T19:42:44.094Z,8.18
2019-03-17T19:45:13.036Z,8.48
2019-03-17T19:47:42.150Z,9.58
2019-03-17T19:50:15.589Z,10.98
2019-03-17T19:52:44.162Z,12.23
2019-03-17T19:55:13.049Z,14.80
2019-03-17T19:57:41.691Z,18.70
2019-03-17T20:00:15.478Z,18.85
2019-03-17T20:02:46.991Z,17.50
2019-03-17T20:05:14.849Z,18.35
2019-03-17T20:07:43.489Z,18.23
2019-03-17T20:10:21.010Z,17.92
2019-03-17T20:12:49.577Z,17.45
2019-03-17T20:15:18.219Z,18.37
2019-03-17T20:17:46.933Z,18.17
2019-03-17T20:20:15.783Z,18.55
2019-03-17T20:22:44.430Z,17.20
2019-03-17T20:25:13.400Z,17.70
2019-03-17T20:27:41.976Z,18.60
2019-03-17T20:30:15.451Z,16.90
2019-03-17T20:32:44.179Z,16.80
2019-03-17T20:35:13.648Z,18.00
2019-03-17T20:37:42.279Z,17.65
2019-03-17T20:40:18.733Z,15.45
2019-03-17T20:42:47.370Z,15.70
2019-03-17T20:45:16.397Z,14.40
2019-03-17T20:47:45.091Z,16.02
2019-03-17T20:50:17.576Z,15.15
2019-03-17T20:52:46.225Z,12.05
2019-03-17T20:55:14.939Z,12.63
2019-03-17T20:57:43.589Z,16.05
2019-03-17T21:00:16.966Z,16.12
2019-03-17T21:02:45.651Z,17.10
2019-03-17T21:05:14.416Z,16.70
2019-03-17T21:07:43.649Z,17.00
2019-03-17T21:10:19.596Z,19.57
2019-03-17T21:12:48.174Z,16.70
2019-03-17T21:15:20.765Z,18.07
2019-03-17T21:17:49.374Z,17.95
2019-03-17T21:20:19.344Z,18.17
2019-03-17T21:22:47.972Z,20.88
2019-03-17T21:25:16.638Z,22.70
2019-03-17T21:27:45.211Z,22.67
2019-03-17T21:30:21.723Z,25.17
2019-03-17T21:32:50.306Z,23.77
2019-03-17T21:35:18.957Z,21.75
2019-03-17T21:37:47.623Z,23.42
2019-03-17T21:40:16.377Z,24.25
2019-03-17T21:42:44.976Z,25.35
2019-03-17T21:45:14.354Z,25.48
2019-03-17T21:47:43.017Z,26.12
2019-03-17T21:50:14.036Z,25.25
2019-03-17T21:52:42.711Z,23.40
2019-03-17T21:55:12.247Z,21.87
2019-03-17T21:57:40.883Z,19.67
2019-03-17T22:00:14.747Z,21.05
2019-03-17T22:02:43.340Z,21.42
2019-03-17T22:05:12.882Z,21.95
2019-03-17T22:07:49.755Z,21.12
2019-03-17T22:10:16.195Z,20.75
2019-03-17T22:12:44.847Z,20.05
2019-03-17T22:15:18.328Z,20.05
2019-03-17T22:17:46.971Z,20.02
2019-03-17T22:20:15.803Z,19.02
2019-03-17T22:22:44.513Z,19.00
2019-03-17T22:25:14.049Z,18.65
2019-03-17T22:27:42.697Z,20.55
2019-03-17T22:30:19.985Z,24.07
2019-03-17T22:32:48.623Z,20.50
2019-03-17T22:35:17.559Z,19.92
2019-03-17T22:37:46.426Z,20.25
2019-03-17T22:40:16.838Z,21.40
2019-03-17T22:42:45.415Z,21.35
2019-03-17T22:45:15.104Z,21.77
2019-03-17T22:47:43.854Z,23.18
2019-03-17T22:50:13.585Z,25.10
2019-03-17T22:52:42.303Z,18.17
2019-03-17T22:55:11.168Z,20.88
2019-03-17T22:57:39.747Z,23.40
2019-03-17T23:00:18.644Z,21.70
2019-03-17T23:02:47.279Z,22.27
2019-03-17T23:05:15.947Z,21.20
2019-03-17T23:07:44.523Z,21.17
2019-03-17T23:10:13.454Z,19.75
2019-03-17T23:12:42.140Z,19.12
2019-03-17T23:15:12.685Z,18.27
2019-03-17T23:17:41.238Z,19.77
2019-03-17T23:20:14.746Z,17.80
2019-03-17T23:22:43.307Z,16.25
2019-03-17T23:25:12.478Z,15.83
2019-03-17T23:27:41.225Z,15.30
2019-03-17T23:30:18.062Z,17.50
2019-03-17T23:32:49.174Z,17.15
2019-03-17T23:35:16.989Z,17.30
2019-03-17T23:37:45.674Z,17.00
2019-03-17T23:40:15.706Z,17.30
2019-03-17T23:42:44.260Z,18.10
2019-03-17T23:45:13.359Z,16.87
2019-03-17T23:47:41.997Z,27.62
2019-03-17T23:50:15.114Z,31.80
2019-03-17T23:52:44.062Z,25.17
2019-03-17T23:55:13.918Z,32.88
2019-03-17T23:57:42.645Z,35.33
